Wetterdaten: aktuell Donnerstag, 18.04.2024 18:05
Datum Zeit Temperatur Luftfeuchte Luftdruck Regen Wind Richtung Richtung Taupunkt Windchill Windben
18.04.2024 18:05 4,9 C 97 % 1017,8 hPa 0,0 l/m 0,0 km/h (0 Bft) SW 220 4,5 C 4,9 C 0,0 km/h (0 Bft)
18.04.2024 18:00 4,9 C 97 % 1017,7 hPa 0,0 l/m 0,0 km/h (0 Bft) SW 220 4,5 C 4,9 C 0,0 km/h (0 Bft)
18.04.2024 17:55 4,9 C 97 % 1017,6 hPa 0,0 l/m 0,0 km/h (0 Bft) SW 220 4,5 C 4,9 C 0,0 km/h (0 Bft)
18.04.2024 17:50 4,9 C 97 % 1017,5 hPa 0,0 l/m 0,0 km/h (0 Bft) SW 220 4,5 C 4,9 C 0,0 km/h (0 Bft)
18.04.2024 17:45 4,8 C 97 % 1017,4 hPa 0,0 l/m 0,0 km/h (0 Bft) SW 220 4,4 C 4,8 C 0,0 km/h (0 Bft)
18.04.2024 17:40 4,8 C 97 % 1017,3 hPa 0,0 l/m 0,0 km/h (0 Bft) SW 220 4,4 C 4,8 C 0,0 km/h (0 Bft)
18.04.2024 17:35 4,9 C 96 % 1017,3 hPa 0,0 l/m 0,0 km/h (0 Bft) SW 220 4,3 C 4,9 C 0,0 km/h (0 Bft)
18.04.2024 17:30 4,9 C 97 % 1017,3 hPa 0,0 l/m 0,1 km/h (0 Bft) SW 220 4,5 C 4,9 C 1,6 km/h (1 Bft)
18.04.2024 17:25 4,8 C 97 % 1017,4 hPa 0,0 l/m 0,3 km/h (0 Bft) W-SW 249 4,4 C 4,8 C 3,2 km/h (1 Bft)
18.04.2024 17:20 4,9 C 96 % 1017,2 hPa 0,0 l/m 0,4 km/h (0 Bft) W 278 4,3 C 4,9 C 3,2 km/h (1 Bft)
18.04.2024 17:15 5,2 C 96 % 1017,1 hPa 0,0 l/m 0,2 km/h (0 Bft) W 278 4,6 C 5,2 C 1,6 km/h (1 Bft)
18.04.2024 17:10 5,4 C 95 % 1017,1 hPa 0,0 l/m 2,1 km/h (1 Bft) W 278 4,7 C 5,4 C 4,8 km/h (1 Bft)
18.04.2024 17:05 5,4 C 95 % 1017,1 hPa 0,0 l/m 0,9 km/h (0 Bft) SW 228 4,7 C 5,4 C 4,8 km/h (1 Bft)
18.04.2024 17:00 5,6 C 95 % 1017,3 hPa 0,0 l/m 0,0 km/h (0 Bft) W 259 4,9 C 5,6 C 0,0 km/h (0 Bft)
18.04.2024 16:55 5,7 C 94 % 1017,2 hPa 0,0 l/m 0,0 km/h (0 Bft) W 274 4,8 C 5,7 C 1,6 km/h (1 Bft)
18.04.2024 16:50 5,8 C 92 % 1017,0 hPa 0,0 l/m 3,4 km/h (1 Bft) W 270 4,6 C 5,8 C 9,7 km/h (2 Bft)
18.04.2024 16:45 5,8 C 95 % 1017,0 hPa 0,0 l/m 2,1 km/h (1 Bft) W 272 5,1 C 5,8 C 6,4 km/h (2 Bft)
18.04.2024 16:40 5,6 C 94 % 1017,0 hPa 0,0 l/m 1,1 km/h (1 Bft) W 266 4,7 C 5,6 C 4,8 km/h (1 Bft)
18.04.2024 16:35 5,6 C 95 % 1017,0 hPa 0,0 l/m 1,0 km/h (0 Bft) W 267 4,9 C 5,6 C 3,2 km/h (1 Bft)
18.04.2024 16:30 5,7 C 95 % 1017,0 hPa 0,0 l/m 1,3 km/h (1 Bft) W-SW 248 5,0 C 5,7 C 4,8 km/h (1 Bft)
18.04.2024 16:25 5,6 C 93 % 1017,0 hPa 0,0 l/m 1,5 km/h (1 Bft) W 259 4,6 C 5,6 C 4,8 km/h (1 Bft)
18.04.2024 16:20 5,6 C 93 % 1016,9 hPa 0,0 l/m 0,4 km/h (0 Bft) NW 314 4,6 C 5,6 C 1,6 km/h (1 Bft)
18.04.2024 16:15 5,6 C 91 % 1016,9 hPa 0,0 l/m 1,8 km/h (1 Bft) N 359 4,2 C 5,6 C 4,8 km/h (1 Bft)
18.04.2024 16:10 5,4 C 94 % 1016,9 hPa 0,0 l/m 0,2 km/h (0 Bft) O-SO 106 4,5 C 5,4 C 1,6 km/h (1 Bft)
18.04.2024 16:05 5,4 C 91 % 1016,9 hPa 0,0 l/m 0,7 km/h (0 Bft) N-NO 29 4,1 C 5,4 C 3,2 km/h (1 Bft)
18.04.2024 16:00 5,2 C 93 % 1017,0 hPa 0,0 l/m 0,7 km/h (0 Bft) O-NO 66 4,2 C 5,2 C 3,2 km/h (1 Bft)
18.04.2024 15:55 4,9 C 91 % 1017,0 hPa 0,0 l/m 1,4 km/h (1 Bft) SO 125 3,6 C 4,9 C 3,2 km/h (1 Bft)
18.04.2024 15:50 5,1 C 94 % 1017,0 hPa 0,0 l/m 1,3 km/h (1 Bft) O-NO 77 4,2 C 5,1 C 4,8 km/h (1 Bft)
18.04.2024 15:45 4,9 C 94 % 1016,9 hPa 0,0 l/m 1,1 km/h (1 Bft) N-NW 336 4,0 C 4,9 C 4,8 km/h (1 Bft)
18.04.2024 15:40 4,8 C 94 % 1017,0 hPa 0,0 l/m 0,6 km/h (0 Bft) O-NO 65 3,9 C 4,8 C 3,2 km/h (1 Bft)
18.04.2024 15:35 4,7 C 95 % 1017,1 hPa 0,0 l/m 0,6 km/h (0 Bft) N-NW 339 4,0 C 4,7 C 3,2 km/h (1 Bft)
18.04.2024 15:30 4,4 C 95 % 1017,2 hPa 0,0 l/m 0,7 km/h (0 Bft) W 268 3,7 C 4,4 C 4,8 km/h (1 Bft)
18.04.2024 15:25 4,4 C 96 % 1017,3 hPa 0,0 l/m 0,0 km/h (0 Bft) N-NW 328 3,8 C 4,4 C 0,0 km/h (0 Bft)
18.04.2024 15:20 4,3 C 96 % 1017,2 hPa 0,0 l/m 0,0 km/h (0 Bft) W-NW 289 3,7 C 4,3 C 0,0 km/h (0 Bft)
18.04.2024 15:15 4,2 C 96 % 1017,3 hPa 0,0 l/m 0,0 km/h (0 Bft) W-NW 303 3,6 C 4,2 C 0,0 km/h (0 Bft)
18.04.2024 15:10 4,1 C 96 % 1017,3 hPa 0,0 l/m 0,0 km/h (0 Bft) W-NW 303 3,5 C 4,1 C 0,0 km/h (0 Bft)
18.04.2024 15:05 4,1 C 97 % 1017,2 hPa 0,0 l/m 0,0 km/h (0 Bft) N-NW 335 3,7 C 4,1 C 0,0 km/h (0 Bft)
18.04.2024 15:00 3,9 C 97 % 1017,2 hPa 0,0 l/m 0,0 km/h (0 Bft) N-NW 335 3,5 C 3,9 C 0,0 km/h (0 Bft)
18.04.2024 14:55 3,7 C 97 % 1017,2 hPa 0,0 l/m 0,0 km/h (0 Bft) N-NW 332 3,3 C 3,7 C 0,0 km/h (0 Bft)
18.04.2024 14:50 3,6 C 97 % 1017,3 hPa 0,0 l/m 0,1 km/h (0 Bft) SW 216 3,2 C 3,6 C 1,6 km/h (1 Bft)
18.04.2024 14:45 3,4 C 97 % 1017,2 hPa 0,0 l/m 0,6 km/h (0 Bft) S 191 3,0 C 3,4 C 3,2 km/h (1 Bft)
18.04.2024 14:40 3,4 C 97 % 1017,2 hPa 0,2 l/m 0,0 km/h (0 Bft) W 266 3,0 C 3,4 C 0,0 km/h (0 Bft)
18.04.2024 14:35 3,4 C 97 % 1017,3 hPa 0,2 l/m 0,6 km/h (0 Bft) W 266 3,0 C 3,4 C 1,6 km/h (1 Bft)
18.04.2024 14:30 3,4 C 97 % 1017,3 hPa 0,0 l/m 0,9 km/h (0 Bft) W 266 3,0 C 3,4 C 3,2 km/h (1 Bft)
18.04.2024 14:25 3,3 C 97 % 1017,2 hPa 0,0 l/m 1,3 km/h (1 Bft) W 266 2,9 C 3,3 C 4,8 km/h (1 Bft)
18.04.2024 14:20 3,3 C 96 % 1017,3 hPa 0,2 l/m 0,4 km/h (0 Bft) S-SW 206 2,7 C 3,3 C 1,6 km/h (1 Bft)
18.04.2024 14:15 3,3 C 96 % 1017,2 hPa 0,0 l/m 0,4 km/h (0 Bft) S 181 2,7 C 3,3 C 1,6 km/h (1 Bft)
18.04.2024 14:10 3,3 C 95 % 1017,2 hPa 0,2 l/m 2,6 km/h (1 Bft) S 179 2,6 C 3,3 C 6,4 km/h (2 Bft)
18.04.2024 14:05 3,6 C 94 % 1017,1 hPa 0,2 l/m 1,8 km/h (1 Bft) SW 214 2,7 C 3,6 C 9,7 km/h (2 Bft)
18.04.2024 14:00 3,7 C 92 % 1017,1 hPa 0,0 l/m 4,2 km/h (1 Bft) O-SO 107 2,5 C 3,7 C 11,3 km/h (2 Bft)
18.04.2024 13:55 4,0 C 90 % 1016,9 hPa 0,2 l/m 3,4 km/h (1 Bft) SO 128 2,5 C 4,0 C 9,7 km/h (2 Bft)
18.04.2024 13:50 4,7 C 89 % 1016,8 hPa 0,0 l/m 7,1 km/h (2 Bft) W 265 3,0 C 4,1 C 17,7 km/h (3 Bft)
18.04.2024 13:45 5,6 C 87 % 1016,7 hPa 0,0 l/m 7,0 km/h (2 Bft) N-NO 12 3,6 C 5,1 C 19,3 km/h (3 Bft)
18.04.2024 13:40 7,0 C 87 % 1016,5 hPa 0,0 l/m 2,8 km/h (1 Bft) W-SW 245 5,0 C 7,0 C 8,0 km/h (2 Bft)
18.04.2024 13:35 6,9 C 85 % 1016,2 hPa 0,0 l/m 2,7 km/h (1 Bft) NW 312 4,6 C 6,9 C 8,0 km/h (2 Bft)
18.04.2024 13:30 6,9 C 87 % 1016,3 hPa 0,0 l/m 2,8 km/h (1 Bft) N 349 4,9 C 6,9 C 8,0 km/h (2 Bft)
18.04.2024 13:25 6,9 C 92 % 1016,2 hPa 0,0 l/m 1,1 km/h (1 Bft) NW 316 5,7 C 6,9 C 6,4 km/h (2 Bft)
18.04.2024 13:20 6,5 C 91 % 1016,2 hPa 0,0 l/m 1,1 km/h (1 Bft) NW 305 5,1 C 6,5 C 4,8 km/h (1 Bft)
18.04.2024 13:15 6,4 C 94 % 1016,3 hPa 0,0 l/m 0,3 km/h (0 Bft) W-NW 291 5,5 C 6,4 C 1,6 km/h (1 Bft)
18.04.2024 13:10 5,7 C 94 % 1016,4 hPa 0,0 l/m 0,5 km/h (0 Bft) W 264 4,8 C 5,7 C 4,8 km/h (1 Bft)
18.04.2024 13:05 5,2 C 94 % 1016,3 hPa 0,0 l/m 1,4 km/h (1 Bft) N-NW 327 4,3 C 5,2 C 3,2 km/h (1 Bft)
18.04.2024 13:00 5,0 C 95 % 1016,3 hPa 0,0 l/m 1,9 km/h (1 Bft) W 280 4,3 C 5,0 C 4,8 km/h (1 Bft)
18.04.2024 12:55 4,6 C 94 % 1016,3 hPa 0,0 l/m 2,1 km/h (1 Bft) O 89 3,7 C 4,6 C 3,2 km/h (1 Bft)
18.04.2024 12:50 4,4 C 94 % 1016,3 hPa 0,0 l/m 1,9 km/h (1 Bft) NO 54 3,5 C 4,4 C 6,4 km/h (2 Bft)
18.04.2024 12:45 4,5 C 96 % 1016,4 hPa 0,0 l/m 0,2 km/h (0 Bft) W-SW 245 3,9 C 4,5 C 1,6 km/h (1 Bft)
18.04.2024 12:40 4,0 C 96 % 1016,3 hPa 0,0 l/m 0,1 km/h (0 Bft) SO 137 3,4 C 4,0 C 3,2 km/h (1 Bft)
18.04.2024 12:35 4,4 C 98 % 1016,4 hPa 0,0 l/m 0,2 km/h (0 Bft) SO 126 4,1 C 4,4 C 3,2 km/h (1 Bft)
18.04.2024 12:30 3,6 C 97 % 1016,4 hPa 0,0 l/m 0,6 km/h (0 Bft) S 174 3,2 C 3,6 C 3,2 km/h (1 Bft)
18.04.2024 12:25 3,4 C 97 % 1016,3 hPa 0,0 l/m 0,7 km/h (0 Bft) N 359 3,0 C 3,4 C 4,8 km/h (1 Bft)
18.04.2024 12:20 3,2 C 97 % 1016,3 hPa 0,0 l/m 0,7 km/h (0 Bft) N 4 2,8 C 3,2 C 3,2 km/h (1 Bft)
18.04.2024 12:15 3,0 C 98 % 1016,3 hPa 0,0 l/m 1,3 km/h (1 Bft) S 174 2,7 C 3,0 C 4,8 km/h (1 Bft)
18.04.2024 12:10 2,8 C 97 % 1016,3 hPa 0,0 l/m 0,5 km/h (0 Bft) N 8 2,4 C 2,8 C 1,6 km/h (1 Bft)
18.04.2024 12:05 2,7 C 98 % 1016,3 hPa 0,0 l/m 0,9 km/h (0 Bft) NW 326 2,4 C 2,7 C 3,2 km/h (1 Bft)
18.04.2024 12:00 2,6 C 98 % 1016,4 hPa 0,0 l/m 0,2 km/h (0 Bft) N-NW 341 2,3 C 2,6 C 3,2 km/h (1 Bft)
18.04.2024 11:55 2,6 C 98 % 1016,3 hPa 0,0 l/m 0,0 km/h (0 Bft) W-SW 251 2,3 C 2,6 C 0,0 km/h (0 Bft)
18.04.2024 11:50 2,4 C 98 % 1016,3 hPa 0,0 l/m 0,6 km/h (0 Bft) W 270 2,1 C 2,4 C 3,2 km/h (1 Bft)
18.04.2024 11:45 2,6 C 99 % 1016,3 hPa 0,0 l/m 0,0 km/h (0 Bft) W-NW 301 2,5 C 2,6 C 0,0 km/h (0 Bft)
18.04.2024 11:40 2,6 C 99 % 1016,3 hPa 0,0 l/m 0,1 km/h (0 Bft) NW 305 2,5 C 2,6 C 1,6 km/h (1 Bft)
18.04.2024 11:35 2,6 C 99 % 1016,3 hPa 0,0 l/m 0,0 km/h (0 Bft) N-NW 343 2,5 C 2,6 C 1,6 km/h (1 Bft)
18.04.2024 11:30 2,1 C 99 % 1016,2 hPa 0,0 l/m 0,3 km/h (0 Bft) N-NW 343 2,0 C 2,1 C 1,6 km/h (1 Bft)
18.04.2024 11:25 2,1 C 99 % 1016,1 hPa 0,0 l/m 0,0 km/h (0 Bft) N 349 2,0 C 2,1 C 0,0 km/h (0 Bft)
18.04.2024 11:20 1,7 C 99 % 1016,1 hPa 0,0 l/m 0,0 km/h (0 Bft) N 354 1,6 C 1,7 C 1,6 km/h (1 Bft)
18.04.2024 11:15 1,8 C 99 % 1016,1 hPa 0,0 l/m 0,0 km/h (0 Bft) N-NW 343 1,7 C 1,8 C 1,6 km/h (1 Bft)
18.04.2024 11:10 1,6 C 99 % 1015,9 hPa 0,0 l/m 0,1 km/h (0 Bft) N-NW 343 1,5 C 1,6 C 1,6 km/h (1 Bft)
18.04.2024 11:05 1,5 C 99 % 1015,9 hPa 0,2 l/m 0,3 km/h (0 Bft) N-NW 344 1,4 C 1,5 C 1,6 km/h (1 Bft)
18.04.2024 11:00 1,4 C 99 % 1015,8 hPa 0,2 l/m 0,2 km/h (0 Bft) N 349 1,3 C 1,4 C 1,6 km/h (1 Bft)
18.04.2024 10:55 1,2 C 99 % 1015,8 hPa 0,0 l/m 0,7 km/h (0 Bft) NO 50 1,1 C 1,2 C 3,2 km/h (1 Bft)
18.04.2024 10:50 1,1 C 99 % 1015,8 hPa 0,2 l/m 0,0 km/h (0 Bft) N-NO 28 1,0 C 1,1 C 1,6 km/h (1 Bft)
18.04.2024 10:45 1,0 C 99 % 1015,7 hPa 0,2 l/m 0,0 km/h (0 Bft) W 276 0,9 C 1,0 C 0,0 km/h (0 Bft)
18.04.2024 10:40 0,9 C 99 % 1015,7 hPa 0,2 l/m 0,0 km/h (0 Bft) W 276 0,8 C 0,9 C 0,0 km/h (0 Bft)
18.04.2024 10:35 0,8 C 99 % 1015,6 hPa 0,0 l/m 0,0 km/h (0 Bft) W 276 0,7 C 0,8 C 0,0 km/h (0 Bft)
18.04.2024 10:30 0,8 C 99 % 1015,6 hPa 0,2 l/m 0,0 km/h (0 Bft) W 276 0,7 C 0,8 C 0,0 km/h (0 Bft)
18.04.2024 10:25 0,7 C 99 % 1015,6 hPa 0,2 l/m 0,0 km/h (0 Bft) W 276 0,6 C 0,7 C 0,0 km/h (0 Bft)
18.04.2024 10:20 0,7 C 99 % 1015,5 hPa 0,0 l/m 0,0 km/h (0 Bft) W 276 0,6 C 0,7 C 0,0 km/h (0 Bft)
18.04.2024 10:15 0,8 C 99 % 1015,4 hPa 0,0 l/m 0,0 km/h (0 Bft) W 276 0,7 C 0,8 C 0,0 km/h (0 Bft)
18.04.2024 10:10 0,9 C 99 % 1015,3 hPa 0,2 l/m 0,0 km/h (0 Bft) W 276 0,8 C 0,9 C 0,0 km/h (0 Bft)
18.04.2024 10:05 0,9 C 99 % 1015,3 hPa 0,0 l/m 0,0 km/h (0 Bft) W 276 0,8 C 0,9 C 0,0 km/h (0 Bft)
18.04.2024 10:00 0,9 C 99 % 1015,2 hPa 0,2 l/m 0,0 km/h (0 Bft) W 276 0,8 C 0,9 C 0,0 km/h (0 Bft)
18.04.2024 09:55 0,9 C 99 % 1015,1 hPa 0,2 l/m 0,0 km/h (0 Bft) W 276 0,8 C 0,9 C 0,0 km/h (0 Bft)
18.04.2024 09:50 0,8 C 98 % 1015,1 hPa 0,0 l/m 0,0 km/h (0 Bft) W 276 0,5 C 0,8 C 0,0 km/h (0 Bft)
_ Min-Zeit 10:20 13:35 19:00 - 19:00 - - 09:45 10:20 19:00
Minimum _ 0,7 C 85 % 1010,0 hPa - 0,0 km/h (0 Bft) - - 0,5 C 0,7 C 0,0 km/h (0 Bft)
_ Max-Zeit 13:40 21:30 18:05 23:50 13:50 - - 13:25 13:40 13:45
Maximum _ 7,3 C 99 % 1017,8 hPa 0,6 l/m 7,1 km/h
W (2 Bft)
- - 5,7 C 7,0 C 19,3 km/h
SW (3 Bft)
Durchschnitt _ 3,2 C 97 % 1013,4 hPa #12,6 l/m 0,4 km/h (0 Bft) W - 2,9 C 3,2 C 1,6 km/h (1 Bft)
(c) Wettermessnetz Ostbayern / Wetterstation Hllenstein